KFEP

Albertus Airport

Freeport, Illinois, USA
METAR KFEP 231055Z AUTO 34013KT 5SM BR BKN010 OVC015 00/M01 A2966 RMK AO2 T10051012
Observed Flight Rules
Jan-23 @ 10:55 UTC (an hour ago) Marginal Visual Flight Rules
Wind Visibility Clouds Conditions
340° at 13 knots 5 miles
  • Broken at 1,000' AGL
  • Overcast at 1,500' AGL
  • Mist
Temperatures Readings
Current -1°C / 30°F
Dewpoint -1°C / 30°F
Humidity 100%
Altimeter 29.66" Hg
Pressure 1004 hPa
Elevation 262
METAR KFEP 231055Z AUTO 34013KT 5SM BR BKN010 OVC015 00/M01 A2966 RMK AO2 T10051012
Observed Flight Rules
Jan-23 @ 10:55 UTC
(an hour ago)
MVFR
Wind Visibility
340° at 13 knots 5 miles
Clouds
  • Broken at 1,000' AGL
  • Overcast at 1,500' AGL
Conditions
  • Mist
Temperature Dewpoint
-1°C / 30°F -1°C / 30°F
Humidity Altimeter Pressure
100% 29.66" Hg 1004 hPa